Time;durP1;ratioP1;P1;durP2;ratioP2;P2;SDS_P1;SDS_P2;PMS_P1;PMS_P2;Temp;Humidity;BMP_temperature;BMP_pressure;BME280_temperature;BME280_humidity;BME280_pressure;Samples;Min_cycle;Max_cycle;Signal;HPM_P1;HPM_P2
2023/10/17 00:02:49;;;;;;;6.67;4.77;;;;;;;;;;5013169;28;20380;-67
2023/10/17 00:05:14;;;;;;;8.73;3.80;;;;;;;;;;5009580;28;20194;-68
2023/10/17 00:07:43;;;;;;;9.27;4.50;;;;;;;;;;5011005;28;20179;-67
2023/10/17 00:10:14;;;;;;;6.53;3.60;;;;;;;;;;5010992;28;20206;-67
2023/10/17 00:12:43;;;;;;;9.03;4.00;;;;;;;;;;5012033;28;20175;-68
2023/10/17 00:15:27;;;;;;;6.50;4.37;;;;;;;;;;5008499;28;20179;-68
2023/10/17 00:18:11;;;;;;;7.50;4.10;;;;;;;;;;5006834;28;20178;-68
2023/10/17 00:20:40;;;;;;;7.47;3.83;;;;;;;;;;5010319;28;20716;-68
2023/10/17 00:23:06;;;;;;;5.30;3.83;;;;;;;;;;5008926;28;20215;-68
2023/10/17 00:25:31;;;;;;;6.33;3.20;;;;;;;;;;5011905;28;20548;-68
2023/10/17 00:27:58;;;;;;;6.43;3.70;;;;;;;;;;5011829;28;20178;-67
2023/10/17 00:30:23;;;;;;;4.93;3.27;;;;;;;;;;5009438;28;20215;-67
2023/10/17 00:32:51;;;;;;;5.07;3.90;;;;;;;;;;5007456;28;20240;-67
2023/10/17 00:35:19;;;;;;;6.63;3.50;;;;;;;;;;5009884;28;20186;-68
2023/10/17 00:37:53;;;;;;;5.70;3.57;;;;;;;;;;5009294;28;20187;-69
2023/10/17 00:40:34;;;;;;;9.63;3.23;;;;;;;;;;5010727;28;20264;-67
2023/10/17 00:43:03;;;;;;;7.50;3.33;;;;;;;;;;5015093;28;20241;-68
2023/10/17 00:45:29;;;;;;;6.50;3.93;;;;;;;;;;5009152;28;20175;-68
2023/10/17 00:47:54;;;;;;;5.67;3.17;;;;;;;;;;5011821;28;20179;-67
2023/10/17 00:50:20;;;;;;;7.53;3.53;;;;;;;;;;5009144;28;20199;-67
2023/10/17 00:52:45;;;;;;;5.30;2.93;;;;;;;;;;5009763;28;20258;-68
2023/10/17 00:55:11;;;;;;;6.20;3.43;;;;;;;;;;5007667;28;21135;-68
2023/10/17 00:57:37;;;;;;;8.13;3.67;;;;;;;;;;5008477;28;20179;-69
2023/10/17 01:00:23;;;;;;;5.47;3.10;;;;;;;;;;5010080;28;20736;-68
2023/10/17 01:02:51;;;;;;;10.50;2.70;;;;;;;;;;5010257;28;20199;-68
2023/10/17 01:05:17;;;;;;;4.07;2.93;;;;;;;;;;5010468;28;20179;-67
2023/10/17 01:07:42;;;;;;;10.43;3.37;;;;;;;;;;5011098;28;20325;-67
2023/10/17 01:10:10;;;;;;;6.30;3.67;;;;;;;;;;5008852;28;20206;-67
2023/10/17 01:12:40;;;;;;;4.43;3.03;;;;;;;;;;5009216;28;20183;-67
2023/10/17 01:15:06;;;;;;;3.87;2.70;;;;;;;;;;5009864;28;20179;-68
2023/10/17 01:17:35;;;;;;;9.53;3.73;;;;;;;;;;5011243;28;20190;-68
2023/10/17 01:20:07;;;;;;;6.93;3.73;;;;;;;;;;5010499;28;20187;-67
2023/10/17 01:22:33;;;;;;;4.60;2.83;;;;;;;;;;5008450;28;20257;-68
2023/10/17 01:24:58;;;;;;;5.87;3.40;;;;;;;;;;5010987;28;20240;-67
2023/10/17 01:27:23;;;;;;;4.77;3.30;;;;;;;;;;5005884;28;20271;-67
2023/10/17 01:29:49;;;;;;;4.87;3.03;;;;;;;;;;5007930;28;20179;-67
2023/10/17 01:32:15;;;;;;;5.30;3.03;;;;;;;;;;5009161;28;20191;-67
2023/10/17 01:34:40;;;;;;;4.10;2.83;;;;;;;;;;5010527;28;20206;-67
2023/10/17 01:37:07;;;;;;;4.97;2.53;;;;;;;;;;5010016;28;20253;-68
2023/10/17 01:39:33;;;;;;;4.73;2.77;;;;;;;;;;5005646;28;20187;-68
2023/10/17 01:41:59;;;;;;;6.33;2.50;;;;;;;;;;5014453;28;20203;-69
2023/10/17 01:44:24;;;;;;;6.10;3.03;;;;;;;;;;5005058;28;20238;-67
2023/10/17 01:46:49;;;;;;;6.10;3.20;;;;;;;;;;5006396;28;20163;-67
2023/10/17 01:49:15;;;;;;;4.63;2.60;;;;;;;;;;5008167;28;20214;-68
2023/10/17 01:51:45;;;;;;;6.97;2.57;;;;;;;;;;5008609;28;20256;-68
2023/10/17 01:54:15;;;;;;;3.53;2.80;;;;;;;;;;5006022;28;20235;-68
2023/10/17 01:56:40;;;;;;;6.70;3.13;;;;;;;;;;5010205;28;20187;-68
2023/10/17 01:59:13;;;;;;;3.77;2.30;;;;;;;;;;5007127;28;20228;-68
2023/10/17 02:01:40;;;;;;;5.70;3.03;;;;;;;;;;5009202;28;20278;-68
2023/10/17 02:04:06;;;;;;;4.63;3.17;;;;;;;;;;5006732;28;20211;-67
2023/10/17 02:06:33;;;;;;;6.90;3.03;;;;;;;;;;5005523;28;20193;-68
2023/10/17 02:08:58;;;;;;;4.97;3.17;;;;;;;;;;5008984;28;20175;-67
2023/10/17 02:11:24;;;;;;;3.90;2.80;;;;;;;;;;5010441;28;20210;-68
2023/10/17 02:13:56;;;;;;;3.87;3.13;;;;;;;;;;5004830;28;20180;-68
2023/10/17 02:16:22;;;;;;;4.97;2.40;;;;;;;;;;5004871;28;20202;-68
2023/10/17 02:18:48;;;;;;;6.37;2.70;;;;;;;;;;5008985;28;20557;-67
2023/10/17 02:21:14;;;;;;;6.30;3.10;;;;;;;;;;5009924;28;20213;-68
2023/10/17 02:23:40;;;;;;;11.63;3.23;;;;;;;;;;5006691;28;20199;-68
2023/10/17 02:26:10;;;;;;;7.00;2.97;;;;;;;;;;5005007;28;20198;-67
2023/10/17 02:28:44;;;;;;;5.27;3.50;;;;;;;;;;5009999;28;20258;-67
2023/10/17 02:31:11;;;;;;;8.23;2.87;;;;;;;;;;5008705;28;20210;-67
2023/10/17 02:33:36;;;;;;;4.40;2.77;;;;;;;;;;5008921;28;20269;-67
2023/10/17 02:36:13;;;;;;;9.63;3.83;;;;;;;;;;5008969;28;20635;-67
2023/10/17 02:38:39;;;;;;;4.03;2.77;;;;;;;;;;5009950;28;20317;-67
2023/10/17 02:41:08;;;;;;;11.13;2.77;;;;;;;;;;5012781;28;20217;-68
2023/10/17 02:43:37;;;;;;;5.13;2.60;;;;;;;;;;5010739;28;20210;-68
2023/10/17 02:46:04;;;;;;;5.43;2.90;;;;;;;;;;5011224;28;20450;-67
2023/10/17 02:48:29;;;;;;;7.20;2.97;;;;;;;;;;5011429;28;20183;-68
2023/10/17 02:51:02;;;;;;;4.03;2.93;;;;;;;;;;5012596;28;20673;-67
2023/10/17 02:53:36;;;;;;;6.47;2.80;;;;;;;;;;5013465;28;20186;-68
2023/10/17 02:56:18;;;;;;;8.30;3.80;;;;;;;;;;5011514;28;20536;-67
2023/10/17 02:58:47;;;;;;;8.67;3.00;;;;;;;;;;5013457;28;20179;-68
2023/10/17 03:01:13;;;;;;;5.83;3.10;;;;;;;;;;5011043;28;20282;-68
2023/10/17 03:03:39;;;;;;;4.70;2.90;;;;;;;;;;5009778;28;20301;-68
2023/10/17 03:06:05;;;;;;;4.73;3.03;;;;;;;;;;5012885;28;20565;-67
2023/10/17 03:08:36;;;;;;;5.90;2.47;;;;;;;;;;5010710;28;20178;-67
2023/10/17 03:11:02;;;;;;;6.20;2.77;;;;;;;;;;5012778;28;20666;-67
2023/10/17 03:13:39;;;;;;;4.47;2.67;;;;;;;;;;5012334;28;20218;-67
2023/10/17 03:16:23;;;;;;;3.50;2.37;;;;;;;;;;5011268;28;20191;-67
2023/10/17 03:18:50;;;;;;;4.27;2.23;;;;;;;;;;5007938;28;20564;-68
2023/10/17 03:21:18;;;;;;;3.97;2.33;;;;;;;;;;5012713;28;20222;-67
2023/10/17 03:23:46;;;;;;;9.73;3.37;;;;;;;;;;5011830;28;20207;-68
2023/10/17 03:26:12;;;;;;;5.23;2.63;;;;;;;;;;5004866;28;20647;-68
2023/10/17 03:28:40;;;;;;;7.03;2.87;;;;;;;;;;5013266;28;20175;-68
2023/10/17 03:31:10;;;;;;;6.17;2.73;;;;;;;;;;5010054;28;20767;-67
2023/10/17 03:33:40;;;;;;;5.63;3.23;;;;;;;;;;5010994;28;20718;-68
2023/10/17 03:36:05;;;;;;;9.50;3.17;;;;;;;;;;5007460;28;20325;-68
2023/10/17 03:38:32;;;;;;;6.97;4.03;;;;;;;;;;5012947;28;20269;-68
2023/10/17 03:41:15;;;;;;;6.70;3.60;;;;;;;;;;5012423;28;20230;-68
2023/10/17 03:43:45;;;;;;;5.43;3.33;;;;;;;;;;5015633;28;20613;-68
2023/10/17 03:46:15;;;;;;;4.83;3.80;;;;;;;;;;5011974;28;20201;-68
2023/10/17 03:48:49;;;;;;;8.57;4.10;;;;;;;;;;5010156;28;20560;-67
2023/10/17 03:51:21;;;;;;;4.70;3.70;;;;;;;;;;5008489;28;20571;-68
2023/10/17 03:53:47;;;;;;;6.97;3.50;;;;;;;;;;5007561;28;20534;-69
2023/10/17 03:56:19;;;;;;;7.53;3.87;;;;;;;;;;5009478;28;20178;-68
2023/10/17 03:58:49;;;;;;;6.20;3.73;;;;;;;;;;5013888;28;20191;-68
2023/10/17 04:01:18;;;;;;;8.63;4.10;;;;;;;;;;5011135;28;20238;-68
2023/10/17 04:03:43;;;;;;;12.70;4.17;;;;;;;;;;5012365;28;20207;-68
2023/10/17 04:08:37;;;;;;;7.07;4.07;;;;;;;;;;5010703;28;20175;-68
2023/10/17 04:11:17;;;;;;;10.87;5.17;;;;;;;;;;5010837;28;20202;-68
2023/10/17 04:13:43;;;;;;;8.70;4.00;;;;;;;;;;5008343;28;20310;-68
2023/10/17 04:16:22;;;;;;;5.60;4.23;;;;;;;;;;5011649;28;20266;-68
2023/10/17 04:19:07;;;;;;;5.47;3.67;;;;;;;;;;5013089;28;20186;-68
2023/10/17 04:21:37;;;;;;;4.83;3.53;;;;;;;;;;5006369;28;20202;-68
2023/10/17 04:24:06;;;;;;;9.47;4.07;;;;;;;;;;5001337;28;20211;-68
2023/10/17 04:26:35;;;;;;;4.80;3.60;;;;;;;;;;5010504;28;20179;-68
2023/10/17 04:29:11;;;;;;;5.63;3.53;;;;;;;;;;5011485;28;20249;-68
2023/10/17 04:31:37;;;;;;;7.23;4.10;;;;;;;;;;5010882;28;20741;-68
2023/10/17 04:34:14;;;;;;;6.53;3.70;;;;;;;;;;5010996;28;20286;-68
2023/10/17 04:36:39;;;;;;;6.00;3.97;;;;;;;;;;5008514;28;20186;-68
2023/10/17 04:39:18;;;;;;;8.03;3.87;;;;;;;;;;5010382;28;20191;-68
2023/10/17 04:44:22;;;;;;;7.67;3.27;;;;;;;;;;5004261;28;20206;-68
2023/10/17 04:47:06;;;;;;;6.23;4.03;;;;;;;;;;5006821;28;20583;-68
2023/10/17 04:49:35;;;;;;;5.97;3.67;;;;;;;;;;5009094;28;20170;-68
2023/10/17 04:52:06;;;;;;;4.53;3.43;;;;;;;;;;5010318;28;20651;-68
2023/10/17 04:57:00;;;;;;;6.00;3.80;;;;;;;;;;5010476;28;20206;-68
2023/10/17 04:59:43;;;;;;;6.40;3.40;;;;;;;;;;5010754;28;20187;-68
2023/10/17 06:18:26;;;;;;;3.83;3.07;;;;;;;;;;5007366;28;20716;-67
2023/10/17 06:21:35;;;;;;;4.67;3.10;;;;;;;;;;5008909;28;20238;-67
2023/10/17 06:34:18;;;;;;;7.00;4.60;;;;;;;;;;5007428;28;20356;-67
2023/10/17 06:36:44;;;;;;;7.87;4.10;;;;;;;;;;5011007;28;20462;-67
2023/10/17 06:39:19;;;;;;;6.40;3.43;;;;;;;;;;5011110;28;20186;-67
2023/10/17 06:41:45;;;;;;;5.47;3.60;;;;;;;;;;5005491;28;20219;-67
2023/10/17 06:44:16;;;;;;;10.17;4.23;;;;;;;;;;5007230;28;20218;-67
2023/10/17 06:46:55;;;;;;;6.17;3.93;;;;;;;;;;5013004;28;20191;-68
2023/10/17 06:49:47;;;;;;;5.07;4.10;;;;;;;;;;5013289;28;20669;-68
2023/10/17 06:54:40;;;;;;;7.57;4.40;;;;;;;;;;5013305;28;20190;-67
2023/10/17 06:57:18;;;;;;;6.47;4.53;;;;;;;;;;5012545;28;20214;-68
2023/10/17 06:59:43;;;;;;;10.63;5.70;;;;;;;;;;5007694;28;20197;-67
2023/10/17 07:04:55;;;;;;;7.90;5.67;;;;;;;;;;5010704;28;20288;-67
2023/10/17 07:07:22;;;;;;;11.57;6.17;;;;;;;;;;5010837;28;20189;-67
2023/10/17 07:09:52;;;;;;;9.67;6.17;;;;;;;;;;5005089;28;20194;-67
2023/10/17 07:12:19;;;;;;;15.93;6.70;;;;;;;;;;5013428;28;20191;-68
2023/10/17 07:14:48;;;;;;;12.43;7.10;;;;;;;;;;5009785;28;20635;-67
2023/10/17 07:17:27;;;;;;;16.07;7.60;;;;;;;;;;5010770;28;20289;-69
2023/10/17 07:22:24;;;;;;;15.80;7.83;;;;;;;;;;5005331;28;20681;-67
2023/10/17 07:24:50;;;;;;;14.83;8.17;;;;;;;;;;5008913;28;20356;-67
2023/10/17 07:27:33;;;;;;;15.73;9.63;;;;;;;;;;5007442;28;20215;-69
2023/10/17 07:29:58;;;;;;;18.17;9.60;;;;;;;;;;5011155;28;20175;-69
2023/10/17 07:32:25;;;;;;;14.83;9.03;;;;;;;;;;5017197;28;20665;-68
2023/10/17 07:34:52;;;;;;;16.10;8.47;;;;;;;;;;5012363;28;20237;-67
2023/10/17 07:40:31;;;;;;;17.20;10.87;;;;;;;;;;5009709;28;20190;-68
2023/10/17 07:42:40;;;;;;;18.17;10.40;;;;;;;;;;5006349;28;20203;-68
2023/10/17 07:45:13;;;;;;;14.63;9.77;;;;;;;;;;5010139;28;20193;-68
2023/10/17 07:47:41;;;;;;;20.47;10.50;;;;;;;;;;5007739;28;20186;-68
2023/10/17 07:50:12;;;;;;;22.13;11.20;;;;;;;;;;5010703;28;20271;-68
2023/10/17 07:52:38;;;;;;;18.73;10.67;;;;;;;;;;5009386;28;20179;-68
2023/10/17 07:55:23;;;;;;;19.20;11.57;;;;;;;;;;5009053;28;20190;-68
2023/10/17 07:57:55;;;;;;;15.70;9.07;;;;;;;;;;5006584;28;20183;-68
2023/10/17 08:00:27;;;;;;;15.70;9.50;;;;;;;;;;5011053;28;20654;-68
2023/10/17 08:02:54;;;;;;;13.77;8.43;;;;;;;;;;5010280;28;20215;-68
2023/10/17 08:05:23;;;;;;;15.20;8.73;;;;;;;;;;5009399;28;20213;-68
2023/10/17 08:07:49;;;;;;;19.47;8.70;;;;;;;;;;5005359;28;20175;-68
2023/10/17 08:10:29;;;;;;;15.73;8.97;;;;;;;;;;5001887;28;20219;-68
2023/10/17 08:12:54;;;;;;;13.80;7.93;;;;;;;;;;5007852;28;20306;-68
2023/10/17 08:15:22;;;;;;;13.33;8.10;;;;;;;;;;5009918;28;20665;-68
2023/10/17 08:17:49;;;;;;;11.57;8.23;;;;;;;;;;5010537;28;20175;-68
2023/10/17 08:25:30;;;;;;;17.80;8.80;;;;;;;;;;5011035;28;20312;-68
2023/10/17 08:27:56;;;;;;;11.87;7.83;;;;;;;;;;5007434;28;20183;-68
2023/10/17 08:30:34;;;;;;;13.32;7.78;;;;;;;;;;5008981;28;20906;-68
2023/10/17 08:35:37;;;;;;;14.00;7.57;;;;;;;;;;5011394;28;20705;-67
2023/10/17 08:38:03;;;;;;;13.75;8.52;;;;;;;;;;5010760;28;20274;-66
2023/10/17 08:40:32;;;;;;;15.18;7.47;;;;;;;;;;5010990;28;20214;-67
2023/10/17 08:43:01;;;;;;;12.45;7.60;;;;;;;;;;5009085;28;20199;-67
2023/10/17 08:45:26;;;;;;;10.68;7.25;;;;;;;;;;5011062;28;20666;-67
2023/10/17 08:47:57;;;;;;;10.15;6.20;;;;;;;;;;5010455;28;20233;-67
2023/10/17 08:50:24;;;;;;;18.90;7.50;;;;;;;;;;5011330;28;20187;-67
2023/10/17 08:52:50;;;;;;;10.88;6.38;;;;;;;;;;5011897;28;20203;-67
2023/10/17 08:55:16;;;;;;;8.15;5.82;;;;;;;;;;5007276;28;20171;-67
2023/10/17 08:57:41;;;;;;;16.77;7.25;;;;;;;;;;5009034;28;20175;-67
2023/10/17 09:02:35;;;;;;;7.03;5.53;;;;;;;;;;5007668;28;20674;-67
2023/10/17 09:05:05;;;;;;;10.52;6.03;;;;;;;;;;5001367;28;20182;-67
2023/10/17 09:07:43;;;;;;;9.25;6.15;;;;;;;;;;5006023;28;20178;-67
2023/10/17 09:10:36;;;;;;;8.70;5.85;;;;;;;;;;5007021;28;20812;-66
2023/10/17 09:15:59;;;;;;;8.80;6.10;;;;;;;;;;5009889;28;20167;-66
2023/10/17 09:18:27;;;;;;;8.15;5.38;;;;;;;;;;5019976;28;20219;-66
2023/10/17 09:20:53;;;;;;;11.57;5.43;;;;;;;;;;5002070;28;20207;-67
2023/10/17 09:23:28;;;;;;;9.10;5.45;;;;;;;;;;5011692;28;20252;-67
2023/10/17 09:25:54;;;;;;;10.38;5.88;;;;;;;;;;5007532;28;20190;-66
2023/10/17 09:28:22;;;;;;;9.95;5.03;;;;;;;;;;5009084;28;20194;-67
2023/10/17 09:31:06;;;;;;;10.38;5.85;;;;;;;;;;5010863;28;20207;-67
2023/10/17 09:33:31;;;;;;;7.15;4.50;;;;;;;;;;5009743;28;20179;-67
2023/10/17 09:36:02;;;;;;;10.05;4.72;;;;;;;;;;5002977;28;20716;-67
2023/10/17 09:38:27;;;;;;;6.10;3.85;;;;;;;;;;5009423;28;20738;-67
2023/10/17 09:40:55;;;;;;;6.57;3.35;;;;;;;;;;5008675;28;20297;-67
2023/10/17 09:43:20;;;;;;;6.78;4.18;;;;;;;;;;5011089;28;20616;-67
2023/10/17 09:45:48;;;;;;;10.10;4.15;;;;;;;;;;5007580;28;20175;-66
2023/10/17 09:48:13;;;;;;;9.38;4.53;;;;;;;;;;5011484;28;20326;-67
2023/10/17 09:50:39;;;;;;;6.78;3.75;;;;;;;;;;5009489;28;20723;-66
2023/10/17 09:53:28;;;;;;;5.78;3.63;;;;;;;;;;5011905;28;20183;-67
2023/10/17 09:55:55;;;;;;;7.95;4.32;;;;;;;;;;5010720;28;20236;-66
2023/10/17 09:58:22;;;;;;;5.95;3.70;;;;;;;;;;5012645;28;20187;-66
2023/10/17 10:00:56;;;;;;;9.10;4.05;;;;;;;;;;5013839;28;20198;-67
2023/10/17 10:03:24;;;;;;;10.25;3.95;;;;;;;;;;5011205;28;20198;-67
2023/10/17 10:05:53;;;;;;;5.05;3.30;;;;;;;;;;5009282;28;20179;-66
2023/10/17 10:08:32;;;;;;;6.55;3.45;;;;;;;;;;5006660;28;20251;-66
2023/10/17 10:10:59;;;;;;;6.93;3.40;;;;;;;;;;5012305;28;20198;-66
2023/10/17 10:13:24;;;;;;;4.93;3.05;;;;;;;;;;5009066;28;20202;-66
2023/10/17 10:16:03;;;;;;;11.98;3.92;;;;;;;;;;5009816;28;20598;-65
2023/10/17 10:18:35;;;;;;;5.55;3.10;;;;;;;;;;5010290;28;20179;-67
2023/10/17 10:21:01;;;;;;;6.07;2.70;;;;;;;;;;5013908;28;20237;-68
2023/10/17 10:23:45;;;;;;;6.47;3.03;;;;;;;;;;5012365;28;20689;-68
2023/10/17 10:26:19;;;;;;;4.38;2.72;;;;;;;;;;5010406;28;20193;-67
2023/10/17 10:28:45;;;;;;;7.32;3.20;;;;;;;;;;5009591;28;20174;-66
2023/10/17 10:31:23;;;;;;;7.25;3.13;;;;;;;;;;5012475;28;20217;-66
2023/10/17 10:33:49;;;;;;;5.90;2.72;;;;;;;;;;5010103;28;20183;-66
2023/10/17 10:36:15;;;;;;;5.95;3.25;;;;;;;;;;5010474;28;20202;-66
2023/10/17 10:38:40;;;;;;;6.28;3.22;;;;;;;;;;5011968;28;20199;-66
2023/10/17 10:41:06;;;;;;;5.53;3.35;;;;;;;;;;5013742;28;20210;-66
2023/10/17 10:43:31;;;;;;;4.93;3.00;;;;;;;;;;5014372;28;20635;-66
2023/10/17 10:45:56;;;;;;;7.72;3.22;;;;;;;;;;5012192;28;20203;-66
2023/10/17 10:48:22;;;;;;;5.15;3.05;;;;;;;;;;5009134;28;20225;-66
2023/10/17 10:50:55;;;;;;;6.55;3.10;;;;;;;;;;5013790;28;20282;-65
2023/10/17 10:53:20;;;;;;;6.30;2.55;;;;;;;;;;5010900;28;20186;-66
2023/10/17 10:56:06;;;;;;;3.60;2.50;;;;;;;;;;5013533;28;20176;-67
2023/10/17 10:58:33;;;;;;;3.70;2.53;;;;;;;;;;5010580;28;20270;-65
2023/10/17 11:00:59;;;;;;;6.25;2.45;;;;;;;;;;5012470;28;20202;-66
2023/10/17 11:03:25;;;;;;;3.28;1.95;;;;;;;;;;5013203;28;20214;-66
2023/10/17 11:05:54;;;;;;;3.60;2.53;;;;;;;;;;5011227;28;20186;-66
2023/10/17 11:08:20;;;;;;;3.10;2.17;;;;;;;;;;5012951;28;20594;-66
2023/10/17 11:10:46;;;;;;;4.03;2.60;;;;;;;;;;5005962;28;20194;-66
2023/10/17 11:13:11;;;;;;;4.85;2.15;;;;;;;;;;5006233;28;20182;-66
2023/10/17 11:15:39;;;;;;;4.70;2.50;;;;;;;;;;5008363;28;20258;-66
2023/10/17 11:18:06;;;;;;;9.32;4.25;;;;;;;;;;5011766;28;20183;-66
2023/10/17 11:20:32;;;;;;;4.60;2.20;;;;;;;;;;5012722;28;20649;-67
2023/10/17 11:22:57;;;;;;;6.78;2.15;;;;;;;;;;5012106;28;20187;-65
2023/10/17 11:25:31;;;;;;;4.53;2.10;;;;;;;;;;5012309;28;20261;-65
2023/10/17 11:28:00;;;;;;;5.38;1.90;;;;;;;;;;5012977;28;21187;-66
2023/10/17 11:30:32;;;;;;;2.75;1.45;;;;;;;;;;5012549;28;20206;-65
2023/10/17 11:33:04;;;;;;;5.93;1.92;;;;;;;;;;5012904;28;20178;-66
2023/10/17 11:35:30;;;;;;;3.50;2.10;;;;;;;;;;5012866;28;20210;-65
2023/10/17 11:37:58;;;;;;;6.90;2.65;;;;;;;;;;5011906;28;20206;-66
2023/10/17 11:40:30;;;;;;;7.32;2.35;;;;;;;;;;5012773;28;20278;-66
2023/10/17 11:42:58;;;;;;;5.10;2.20;;;;;;;;;;5010832;28;20183;-66
2023/10/17 11:45:37;;;;;;;5.38;2.08;;;;;;;;;;5008465;28;20268;-65
2023/10/17 11:48:23;;;;;;;4.57;2.30;;;;;;;;;;5011292;28;20537;-66
2023/10/17 11:50:50;;;;;;;4.43;2.20;;;;;;;;;;5012499;28;20195;-65
2023/10/17 11:53:16;;;;;;;3.22;1.83;;;;;;;;;;5011246;28;20646;-65
2023/10/17 11:55:50;;;;;;;4.90;2.17;;;;;;;;;;5008680;28;20179;-66
2023/10/17 11:58:29;;;;;;;3.42;1.95;;;;;;;;;;5002261;28;20183;-66
2023/10/17 12:00:54;;;;;;;3.45;2.25;;;;;;;;;;5010265;28;20198;-65
2023/10/17 12:03:20;;;;;;;2.50;1.63;;;;;;;;;;5008585;28;20229;-65
2023/10/17 12:05:48;;;;;;;3.35;2.10;;;;;;;;;;5010275;28;20179;-66
2023/10/17 12:08:22;;;;;;;2.55;1.90;;;;;;;;;;5006082;28;20554;-66
2023/10/17 12:10:51;;;;;;;3.30;1.75;;;;;;;;;;5011284;28;20203;-66
2023/10/17 12:13:17;;;;;;;2.20;1.75;;;;;;;;;;5013615;28;20179;-66
2023/10/17 12:15:43;;;;;;;4.07;2.00;;;;;;;;;;5013570;28;20218;-66
2023/10/17 12:18:08;;;;;;;2.70;1.52;;;;;;;;;;5014173;28;20175;-66
2023/10/17 12:20:40;;;;;;;6.53;2.42;;;;;;;;;;5013907;28;20206;-66
2023/10/17 12:23:08;;;;;;;5.03;2.22;;;;;;;;;;5015855;28;20451;-66
2023/10/17 12:25:34;;;;;;;4.95;2.50;;;;;;;;;;5010536;28;20182;-66
2023/10/17 12:28:02;;;;;;;3.35;2.05;;;;;;;;;;5012159;28;20174;-66
2023/10/17 12:30:27;;;;;;;3.47;2.15;;;;;;;;;;5010263;28;20199;-66
2023/10/17 12:32:55;;;;;;;2.88;1.80;;;;;;;;;;5012159;28;20193;-66
2023/10/17 12:35:21;;;;;;;2.42;1.83;;;;;;;;;;5009789;28;20179;-66
2023/10/17 12:37:50;;;;;;;4.10;2.08;;;;;;;;;;5011615;28;20637;-65
2023/10/17 12:40:21;;;;;;;5.00;1.58;;;;;;;;;;5013415;28;20646;-66
2023/10/17 12:42:46;;;;;;;4.50;1.75;;;;;;;;;;5009842;28;20732;-66
2023/10/17 12:45:14;;;;;;;5.68;2.28;;;;;;;;;;5011292;28;20190;-66
2023/10/17 12:47:40;;;;;;;2.78;1.77;;;;;;;;;;5010281;28;20613;-66
2023/10/17 12:50:05;;;;;;;2.35;1.73;;;;;;;;;;5009162;28;20211;-66
2023/10/17 12:52:30;;;;;;;3.70;1.52;;;;;;;;;;5006110;28;20198;-66
2023/10/17 12:54:55;;;;;;;1.90;1.42;;;;;;;;;;5009051;28;20183;-66
2023/10/17 12:57:21;;;;;;;3.30;1.83;;;;;;;;;;5011850;28;20222;-67
2023/10/17 12:59:46;;;;;;;4.10;1.83;;;;;;;;;;5010998;28;20179;-66
2023/10/17 13:02:12;;;;;;;2.97;1.90;;;;;;;;;;5010712;28;20191;-67
2023/10/17 13:04:37;;;;;;;4.63;1.67;;;;;;;;;;5007290;28;20217;-66
2023/10/17 13:07:02;;;;;;;3.95;2.08;;;;;;;;;;5010170;28;20170;-67
2023/10/17 13:09:31;;;;;;;2.83;1.67;;;;;;;;;;5008075;28;20201;-66
2023/10/17 13:11:57;;;;;;;3.95;2.38;;;;;;;;;;5010088;28;20195;-65
2023/10/17 13:14:22;;;;;;;3.10;2.53;;;;;;;;;;5011065;28;20229;-65
2023/10/17 13:16:47;;;;;;;6.97;2.30;;;;;;;;;;5009234;28;20224;-65
2023/10/17 13:19:16;;;;;;;3.40;1.80;;;;;;;;;;5007862;28;20217;-66
2023/10/17 13:21:44;;;;;;;2.38;1.73;;;;;;;;;;5006931;28;20563;-66
2023/10/17 13:24:09;;;;;;;4.72;1.88;;;;;;;;;;5005988;28;20623;-66
2023/10/17 13:26:37;;;;;;;3.20;1.70;;;;;;;;;;5005876;28;20179;-66
2023/10/17 13:29:04;;;;;;;2.75;1.83;;;;;;;;;;5025948;28;20175;-65
2023/10/17 13:31:29;;;;;;;2.70;1.50;;;;;;;;;;5009935;28;20206;-66
2023/10/17 13:33:55;;;;;;;2.92;2.25;;;;;;;;;;5002541;28;20297;-64
2023/10/17 13:36:21;;;;;;;4.32;2.08;;;;;;;;;;5009115;28;20216;-65
2023/10/17 13:38:48;;;;;;;2.80;2.35;;;;;;;;;;5005725;28;20182;-65
2023/10/17 13:41:15;;;;;;;3.45;2.00;;;;;;;;;;5003694;28;20202;-66
2023/10/17 13:43:40;;;;;;;6.18;2.00;;;;;;;;;;5010006;28;20227;-67
2023/10/17 13:46:07;;;;;;;3.50;1.80;;;;;;;;;;5009381;28;20226;-66
2023/10/17 13:48:33;;;;;;;5.97;2.15;;;;;;;;;;5010727;28;20579;-66
2023/10/17 13:51:06;;;;;;;2.50;2.30;;;;;;;;;;5008851;28;20274;-66
2023/10/17 13:53:32;;;;;;;3.88;1.77;;;;;;;;;;5006905;28;20659;-65
2023/10/17 13:55:57;;;;;;;5.13;2.30;;;;;;;;;;5006144;28;20190;-65
2023/10/17 13:58:22;;;;;;;4.40;1.92;;;;;;;;;;5009310;28;20175;-66
2023/10/17 14:01:02;;;;;;;3.70;1.90;;;;;;;;;;5008264;28;20285;-65
2023/10/17 14:03:27;;;;;;;3.90;2.03;;;;;;;;;;5009544;28;20205;-66
2023/10/17 14:05:53;;;;;;;3.33;1.77;;;;;;;;;;5007059;28;20584;-67
2023/10/17 14:08:21;;;;;;;4.50;2.47;;;;;;;;;;5010891;28;20226;-67
2023/10/17 14:10:47;;;;;;;2.83;2.30;;;;;;;;;;5006792;28;20187;-66
2023/10/17 14:13:12;;;;;;;2.85;1.92;;;;;;;;;;5010981;28;20525;-66
2023/10/17 14:15:38;;;;;;;3.05;2.13;;;;;;;;;;5009630;28;20186;-65
2023/10/17 14:18:10;;;;;;;4.32;2.40;;;;;;;;;;5008329;28;20171;-66
2023/10/17 14:20:38;;;;;;;2.67;1.90;;;;;;;;;;5003258;28;20218;-65
2023/10/17 14:23:16;;;;;;;2.50;1.98;;;;;;;;;;5002942;28;20179;-65
2023/10/17 14:28:25;;;;;;;4.57;2.13;;;;;;;;;;5007641;28;20258;-66
2023/10/17 14:30:50;;;;;;;3.03;2.13;;;;;;;;;;5005613;28;20295;-65
2023/10/17 14:33:16;;;;;;;5.38;1.65;;;;;;;;;;5005582;28;20558;-66
2023/10/17 14:35:43;;;;;;;4.10;2.03;;;;;;;;;;5002085;28;20174;-65
2023/10/17 14:38:09;;;;;;;4.68;2.03;;;;;;;;;;5010393;28;20931;-66
2023/10/17 14:40:34;;;;;;;2.35;1.67;;;;;;;;;;5014148;28;20205;-67
2023/10/17 14:43:00;;;;;;;2.35;2.13;;;;;;;;;;5013054;28;20669;-66
2023/10/17 14:45:25;;;;;;;2.00;1.80;;;;;;;;;;5012111;28;20167;-66
2023/10/17 14:47:51;;;;;;;2.10;1.90;;;;;;;;;;5013345;28;20747;-66
2023/10/17 14:50:17;;;;;;;4.60;1.40;;;;;;;;;;5012849;28;20293;-66
2023/10/17 14:52:42;;;;;;;2.33;1.83;;;;;;;;;;5012644;28;20265;-66
2023/10/17 14:55:14;;;;;;;2.05;1.40;;;;;;;;;;5009213;28;20528;-67
2023/10/17 14:57:39;;;;;;;11.45;2.10;;;;;;;;;;5012716;28;20680;-65
2023/10/17 15:00:09;;;;;;;3.78;1.40;;;;;;;;;;5012517;28;20210;-66
2023/10/17 15:02:35;;;;;;;3.35;1.55;;;;;;;;;;5013652;28;20647;-66
2023/10/17 15:05:00;;;;;;;1.67;1.58;;;;;;;;;;5008775;28;20213;-66
2023/10/17 15:07:25;;;;;;;5.32;2.70;;;;;;;;;;5009906;28;20828;-67
2023/10/17 15:09:51;;;;;;;4.40;1.90;;;;;;;;;;5011874;28;20191;-67
2023/10/17 15:12:16;;;;;;;5.28;1.80;;;;;;;;;;5013394;28;20171;-67
2023/10/17 15:14:41;;;;;;;2.50;1.63;;;;;;;;;;5013856;28;20183;-65
2023/10/17 15:17:07;;;;;;;2.60;1.67;;;;;;;;;;5012478;28;20183;-67
2023/10/17 15:19:32;;;;;;;3.70;1.80;;;;;;;;;;5008991;28;20187;-67
2023/10/17 15:21:57;;;;;;;2.33;1.70;;;;;;;;;;5011171;28;20214;-66
2023/10/17 15:24:23;;;;;;;9.40;2.00;;;;;;;;;;5010589;28;20275;-67
2023/10/17 15:26:50;;;;;;;2.38;1.58;;;;;;;;;;5009925;28;20172;-67
2023/10/17 15:29:15;;;;;;;4.07;1.63;;;;;;;;;;5013301;28;20388;-67
2023/10/17 15:31:43;;;;;;;4.68;1.70;;;;;;;;;;5011726;28;20740;-65
2023/10/17 15:34:09;;;;;;;2.90;1.55;;;;;;;;;;5012908;28;20179;-65
2023/10/17 15:36:34;;;;;;;3.90;1.88;;;;;;;;;;5009309;28;20190;-65
2023/10/17 15:39:00;;;;;;;2.50;1.40;;;;;;;;;;5012164;28;20194;-65
2023/10/17 15:41:26;;;;;;;5.40;1.73;;;;;;;;;;5013090;28;20206;-66
2023/10/17 15:43:51;;;;;;;1.55;1.45;;;;;;;;;;5009258;28;20293;-66
2023/10/17 15:46:17;;;;;;;2.17;1.52;;;;;;;;;;5010286;28;20187;-66
2023/10/17 15:48:42;;;;;;;4.10;1.95;;;;;;;;;;5007021;28;20202;-67
2023/10/17 15:51:07;;;;;;;4.03;1.77;;;;;;;;;;5008684;28;20207;-66
2023/10/17 15:53:33;;;;;;;2.67;1.52;;;;;;;;;;5012542;28;20186;-65
2023/10/17 15:56:00;;;;;;;4.28;1.92;;;;;;;;;;5012789;28;20185;-67
2023/10/17 15:58:26;;;;;;;1.73;1.40;;;;;;;;;;5009651;28;20268;-65
2023/10/17 16:00:52;;;;;;;3.95;1.40;;;;;;;;;;5009469;28;20195;-66
2023/10/17 16:03:20;;;;;;;5.22;1.85;;;;;;;;;;5010213;28;20198;-66
2023/10/17 16:05:46;;;;;;;4.82;1.88;;;;;;;;;;5012475;28;20167;-66
2023/10/17 16:08:12;;;;;;;1.50;1.30;;;;;;;;;;5007651;28;20241;-66
2023/10/17 16:10:38;;;;;;;2.50;1.63;;;;;;;;;;5009785;28;20842;-66
2023/10/17 16:13:03;;;;;;;4.90;2.22;;;;;;;;;;5007635;28;20182;-66
2023/10/17 16:15:28;;;;;;;1.70;1.30;;;;;;;;;;5010570;28;20310;-66
2023/10/17 16:17:53;;;;;;;2.42;1.52;;;;;;;;;;5008224;28;20267;-66
2023/10/17 16:20:19;;;;;;;5.40;1.98;;;;;;;;;;5009342;28;20195;-66
2023/10/17 16:22:44;;;;;;;3.25;2.28;;;;;;;;;;5010264;28;20175;-66
2023/10/17 16:25:13;;;;;;;5.30;1.88;;;;;;;;;;5011529;28;20207;-66
2023/10/17 16:27:38;;;;;;;3.55;2.47;;;;;;;;;;5009469;28;20274;-66
2023/10/17 16:30:13;;;;;;;4.05;2.25;;;;;;;;;;5010583;28;20281;-66
2023/10/17 16:32:39;;;;;;;3.58;2.00;;;;;;;;;;5010461;28;20685;-65
2023/10/17 16:35:04;;;;;;;4.28;2.65;;;;;;;;;;5008003;28;20218;-67
2023/10/17 16:37:32;;;;;;;1.60;1.50;;;;;;;;;;5008717;28;20232;-67
2023/10/17 16:39:58;;;;;;;2.78;1.67;;;;;;;;;;5010247;28;20178;-67
2023/10/17 16:42:23;;;;;;;2.50;1.75;;;;;;;;;;5011225;28;20177;-67
2023/10/17 16:44:48;;;;;;;5.93;1.75;;;;;;;;;;5012631;28;20198;-67
2023/10/17 16:47:15;;;;;;;4.67;2.13;;;;;;;;;;5007603;28;20195;-67
2023/10/17 16:49:40;;;;;;;3.73;2.30;;;;;;;;;;5012188;28;20651;-67
2023/10/17 16:52:07;;;;;;;3.23;2.00;;;;;;;;;;5007874;28;20224;-67